<?xml version="1.0" encoding="UTF-8" standalone="no" ?>
<gpx xmlns="http://www.topografix.com/GPX/1/1" xmlns:xsi="http://www.w3.org/2001/XMLSchema-instance" xsi:schemaLocation="http://www.topografix.com/GPX/1/1 http://www.topografix.com/GPX/1/1/gpx.xsd" version="1.1" creator="VisuGPX - https://www.visugpx.com">
  <metadata>
    <name>9 Km - 3 h - Berre - la randonnee des amis</name>
  </metadata>
  <trk>
    <name><![CDATA[3964103-la randonnee des amis]]></name>
    <trkseg>
      <trkpt lat="43.49505" lon="5.15442">
        <ele>7</ele>
        <time>2022-09-07T21:21:07Z</time>
      </trkpt>
      <trkpt lat="43.4951" lon="5.15446">
        <ele>7</ele>
        <time>2022-09-07T21:21:15Z</time>
      </trkpt>
      <trkpt lat="43.49546" lon="5.15428">
        <ele>8</ele>
        <time>2022-09-07T21:22:06Z</time>
      </trkpt>
      <trkpt lat="43.49572" lon="5.15416">
        <ele>8</ele>
        <time>2022-09-07T21:22:42Z</time>
      </trkpt>
      <trkpt lat="43.49596" lon="5.15408">
        <ele>8</ele>
        <time>2022-09-07T21:23:15Z</time>
      </trkpt>
      <trkpt lat="43.4961" lon="5.15402">
        <ele>7</ele>
        <time>2022-09-07T21:23:35Z</time>
      </trkpt>
      <trkpt lat="43.4959" lon="5.15303">
        <ele>7</ele>
        <time>2022-09-07T21:25:14Z</time>
      </trkpt>
      <trkpt lat="43.49587" lon="5.15305">
        <ele>7</ele>
        <time>2022-09-07T21:25:19Z</time>
      </trkpt>
      <trkpt lat="43.49569" lon="5.15313">
        <ele>7</ele>
        <time>2022-09-07T21:25:44Z</time>
      </trkpt>
      <trkpt lat="43.49563" lon="5.15316">
        <ele>7</ele>
        <time>2022-09-07T21:25:53Z</time>
      </trkpt>
      <trkpt lat="43.49554" lon="5.15271">
        <ele>6</ele>
        <time>2022-09-07T21:26:38Z</time>
      </trkpt>
      <trkpt lat="43.49545" lon="5.15236">
        <ele>6</ele>
        <time>2022-09-07T21:27:14Z</time>
      </trkpt>
      <trkpt lat="43.49529" lon="5.15184">
        <ele>6</ele>
        <time>2022-09-07T21:28:08Z</time>
      </trkpt>
      <trkpt lat="43.49503" lon="5.15114">
        <ele>5</ele>
        <time>2022-09-07T21:29:25Z</time>
      </trkpt>
      <trkpt lat="43.49459" lon="5.15">
        <ele>6</ele>
        <time>2022-09-07T21:31:30Z</time>
      </trkpt>
      <trkpt lat="43.49465" lon="5.14995">
        <ele>6</ele>
        <time>2022-09-07T21:31:39Z</time>
      </trkpt>
      <trkpt lat="43.49487" lon="5.1497">
        <ele>6</ele>
        <time>2022-09-07T21:32:17Z</time>
      </trkpt>
      <trkpt lat="43.49505" lon="5.14952">
        <ele>6</ele>
        <time>2022-09-07T21:32:47Z</time>
      </trkpt>
      <trkpt lat="43.4952" lon="5.14944">
        <ele>6</ele>
        <time>2022-09-07T21:33:08Z</time>
      </trkpt>
      <trkpt lat="43.49568" lon="5.14934">
        <ele>7</ele>
        <time>2022-09-07T21:34:13Z</time>
      </trkpt>
      <trkpt lat="43.49597" lon="5.14923">
        <ele>8</ele>
        <time>2022-09-07T21:34:53Z</time>
      </trkpt>
      <trkpt lat="43.49626" lon="5.14908">
        <ele>8</ele>
        <time>2022-09-07T21:35:34Z</time>
      </trkpt>
      <trkpt lat="43.49646" lon="5.14894">
        <ele>8</ele>
        <time>2022-09-07T21:36:04Z</time>
      </trkpt>
      <trkpt lat="43.49646" lon="5.14894">
        <ele>8</ele>
        <time>2022-09-07T21:36:04Z</time>
      </trkpt>
      <trkpt lat="43.49596" lon="5.14776">
        <ele>6</ele>
        <time>2022-09-07T21:38:17Z</time>
      </trkpt>
      <trkpt lat="43.49594" lon="5.14766">
        <ele>5</ele>
        <time>2022-09-07T21:38:27Z</time>
      </trkpt>
      <trkpt lat="43.49521" lon="5.14507">
        <ele>5</ele>
        <time>2022-09-07T21:42:56Z</time>
      </trkpt>
      <trkpt lat="43.49521" lon="5.14508">
        <ele>5</ele>
        <time>2022-09-07T21:42:57Z</time>
      </trkpt>
      <trkpt lat="43.49566" lon="5.14485">
        <ele>6</ele>
        <time>2022-09-07T21:44:01Z</time>
      </trkpt>
      <trkpt lat="43.4958" lon="5.14475">
        <ele>6</ele>
        <time>2022-09-07T21:44:22Z</time>
      </trkpt>
      <trkpt lat="43.49601" lon="5.14449">
        <ele>6</ele>
        <time>2022-09-07T21:44:59Z</time>
      </trkpt>
      <trkpt lat="43.49614" lon="5.14436">
        <ele>6</ele>
        <time>2022-09-07T21:45:21Z</time>
      </trkpt>
      <trkpt lat="43.49623" lon="5.14425">
        <ele>6</ele>
        <time>2022-09-07T21:45:37Z</time>
      </trkpt>
      <trkpt lat="43.49646" lon="5.144">
        <ele>6</ele>
        <time>2022-09-07T21:46:16Z</time>
      </trkpt>
      <trkpt lat="43.49671" lon="5.14372">
        <ele>6</ele>
        <time>2022-09-07T21:46:59Z</time>
      </trkpt>
      <trkpt lat="43.49682" lon="5.14362">
        <ele>6</ele>
        <time>2022-09-07T21:47:17Z</time>
      </trkpt>
      <trkpt lat="43.49701" lon="5.14353">
        <ele>6</ele>
        <time>2022-09-07T21:47:43Z</time>
      </trkpt>
      <trkpt lat="43.4972" lon="5.14342">
        <ele>6</ele>
        <time>2022-09-07T21:48:11Z</time>
      </trkpt>
      <trkpt lat="43.49763" lon="5.14312">
        <ele>6</ele>
        <time>2022-09-07T21:49:15Z</time>
      </trkpt>
      <trkpt lat="43.4981" lon="5.14279">
        <ele>6</ele>
        <time>2022-09-07T21:50:26Z</time>
      </trkpt>
      <trkpt lat="43.49851" lon="5.14251">
        <ele>6</ele>
        <time>2022-09-07T21:51:27Z</time>
      </trkpt>
      <trkpt lat="43.49885" lon="5.14226">
        <ele>6</ele>
        <time>2022-09-07T21:52:18Z</time>
      </trkpt>
      <trkpt lat="43.49913" lon="5.142">
        <ele>6</ele>
        <time>2022-09-07T21:53:03Z</time>
      </trkpt>
      <trkpt lat="43.49912" lon="5.142">
        <ele>6</ele>
        <time>2022-09-07T21:53:05Z</time>
      </trkpt>
      <trkpt lat="43.49857" lon="5.14063">
        <ele>6</ele>
        <time>2022-09-07T21:55:36Z</time>
      </trkpt>
      <trkpt lat="43.49801" lon="5.13929">
        <ele>5</ele>
        <time>2022-09-07T21:58:06Z</time>
      </trkpt>
      <trkpt lat="43.49784" lon="5.13889">
        <ele>6</ele>
        <time>2022-09-07T21:58:51Z</time>
      </trkpt>
      <trkpt lat="43.49773" lon="5.13872">
        <ele>5</ele>
        <time>2022-09-07T21:59:13Z</time>
      </trkpt>
      <trkpt lat="43.49735" lon="5.13845">
        <ele>5</ele>
        <time>2022-09-07T22:00:10Z</time>
      </trkpt>
      <trkpt lat="43.49726" lon="5.13848">
        <ele>5</ele>
        <time>2022-09-07T22:00:22Z</time>
      </trkpt>
      <trkpt lat="43.49726" lon="5.13849">
        <ele>5</ele>
        <time>2022-09-07T22:00:23Z</time>
      </trkpt>
      <trkpt lat="43.4971" lon="5.13821">
        <ele>5</ele>
        <time>2022-09-07T22:00:58Z</time>
      </trkpt>
      <trkpt lat="43.49709" lon="5.13821">
        <ele>5</ele>
        <time>2022-09-07T22:00:59Z</time>
      </trkpt>
      <trkpt lat="43.49674" lon="5.13785">
        <ele>6</ele>
        <time>2022-09-07T22:01:57Z</time>
      </trkpt>
      <trkpt lat="43.49643" lon="5.13741">
        <ele>6</ele>
        <time>2022-09-07T22:02:57Z</time>
      </trkpt>
      <trkpt lat="43.49642" lon="5.13739">
        <ele>6</ele>
        <time>2022-09-07T22:02:59Z</time>
      </trkpt>
      <trkpt lat="43.49631" lon="5.13721">
        <ele>6</ele>
        <time>2022-09-07T22:03:22Z</time>
      </trkpt>
      <trkpt lat="43.49616" lon="5.137">
        <ele>6</ele>
        <time>2022-09-07T22:03:50Z</time>
      </trkpt>
      <trkpt lat="43.49602" lon="5.13678">
        <ele>6</ele>
        <time>2022-09-07T22:04:19Z</time>
      </trkpt>
      <trkpt lat="43.49587" lon="5.13656">
        <ele>6</ele>
        <time>2022-09-07T22:04:48Z</time>
      </trkpt>
      <trkpt lat="43.49566" lon="5.13624">
        <ele>4</ele>
        <time>2022-09-07T22:05:30Z</time>
      </trkpt>
      <trkpt lat="43.49547" lon="5.13596">
        <ele>3</ele>
        <time>2022-09-07T22:06:07Z</time>
      </trkpt>
      <trkpt lat="43.49544" lon="5.13585">
        <ele>3</ele>
        <time>2022-09-07T22:06:18Z</time>
      </trkpt>
      <trkpt lat="43.49536" lon="5.13559">
        <ele>3</ele>
        <time>2022-09-07T22:06:45Z</time>
      </trkpt>
      <trkpt lat="43.49532" lon="5.13546">
        <ele>3</ele>
        <time>2022-09-07T22:06:59Z</time>
      </trkpt>
      <trkpt lat="43.49529" lon="5.13541">
        <ele>3</ele>
        <time>2022-09-07T22:07:05Z</time>
      </trkpt>
      <trkpt lat="43.49518" lon="5.13523">
        <ele>4</ele>
        <time>2022-09-07T22:07:28Z</time>
      </trkpt>
      <trkpt lat="43.49514" lon="5.13517">
        <ele>4</ele>
        <time>2022-09-07T22:07:36Z</time>
      </trkpt>
      <trkpt lat="43.49497" lon="5.13467">
        <ele>3</ele>
        <time>2022-09-07T22:08:29Z</time>
      </trkpt>
      <trkpt lat="43.49478" lon="5.13409">
        <ele>2</ele>
        <time>2022-09-07T22:09:31Z</time>
      </trkpt>
      <trkpt lat="43.49477" lon="5.13407">
        <ele>2</ele>
        <time>2022-09-07T22:09:33Z</time>
      </trkpt>
      <trkpt lat="43.49468" lon="5.13414">
        <ele>2</ele>
        <time>2022-09-07T22:09:47Z</time>
      </trkpt>
      <trkpt lat="43.49467" lon="5.13412">
        <ele>2</ele>
        <time>2022-09-07T22:09:50Z</time>
      </trkpt>
      <trkpt lat="43.49464" lon="5.13399">
        <ele>2</ele>
        <time>2022-09-07T22:10:03Z</time>
      </trkpt>
      <trkpt lat="43.49462" lon="5.13395">
        <ele>2</ele>
        <time>2022-09-07T22:10:07Z</time>
      </trkpt>
      <trkpt lat="43.4946" lon="5.13365">
        <ele>2</ele>
        <time>2022-09-07T22:10:37Z</time>
      </trkpt>
      <trkpt lat="43.49446" lon="5.13306">
        <ele>2</ele>
        <time>2022-09-07T22:11:37Z</time>
      </trkpt>
      <trkpt lat="43.49429" lon="5.13231">
        <ele>2</ele>
        <time>2022-09-07T22:12:53Z</time>
      </trkpt>
      <trkpt lat="43.49412" lon="5.13148">
        <ele>2</ele>
        <time>2022-09-07T22:14:16Z</time>
      </trkpt>
      <trkpt lat="43.494" lon="5.1311">
        <ele>1</ele>
        <time>2022-09-07T22:14:56Z</time>
      </trkpt>
      <trkpt lat="43.49389" lon="5.13075">
        <ele>3</ele>
        <time>2022-09-07T22:15:33Z</time>
      </trkpt>
      <trkpt lat="43.49368" lon="5.13003">
        <ele>2</ele>
        <time>2022-09-07T22:16:48Z</time>
      </trkpt>
      <trkpt lat="43.49363" lon="5.12965">
        <ele>2</ele>
        <time>2022-09-07T22:17:26Z</time>
      </trkpt>
      <trkpt lat="43.49365" lon="5.12952">
        <ele>2</ele>
        <time>2022-09-07T22:17:39Z</time>
      </trkpt>
      <trkpt lat="43.49369" lon="5.12943">
        <ele>1</ele>
        <time>2022-09-07T22:17:49Z</time>
      </trkpt>
      <trkpt lat="43.49378" lon="5.12938">
        <ele>1</ele>
        <time>2022-09-07T22:18:02Z</time>
      </trkpt>
      <trkpt lat="43.49389" lon="5.12933">
        <ele>1</ele>
        <time>2022-09-07T22:18:17Z</time>
      </trkpt>
      <trkpt lat="43.49394" lon="5.12926">
        <ele>1</ele>
        <time>2022-09-07T22:18:27Z</time>
      </trkpt>
      <trkpt lat="43.49401" lon="5.12909">
        <ele>2.4</ele>
        <time>2022-09-07T22:18:46Z</time>
      </trkpt>
      <trkpt lat="43.49412" lon="5.12876">
        <ele>1</ele>
        <time>2022-09-07T22:19:21Z</time>
      </trkpt>
      <trkpt lat="43.49435" lon="5.12814">
        <ele>1</ele>
        <time>2022-09-07T22:20:28Z</time>
      </trkpt>
      <trkpt lat="43.49436" lon="5.1281">
        <ele>1</ele>
        <time>2022-09-07T22:20:32Z</time>
      </trkpt>
      <trkpt lat="43.49437" lon="5.12795">
        <ele>1</ele>
        <time>2022-09-07T22:20:47Z</time>
      </trkpt>
      <trkpt lat="43.4945" lon="5.12768">
        <ele>2</ele>
        <time>2022-09-07T22:21:18Z</time>
      </trkpt>
      <trkpt lat="43.49464" lon="5.1275">
        <ele>2</ele>
        <time>2022-09-07T22:21:44Z</time>
      </trkpt>
      <trkpt lat="43.49467" lon="5.12747">
        <ele>2</ele>
        <time>2022-09-07T22:21:49Z</time>
      </trkpt>
      <trkpt lat="43.4947" lon="5.12737">
        <ele>2</ele>
        <time>2022-09-07T22:21:59Z</time>
      </trkpt>
      <trkpt lat="43.49474" lon="5.12727">
        <ele>2</ele>
        <time>2022-09-07T22:22:10Z</time>
      </trkpt>
      <trkpt lat="43.49479" lon="5.12695">
        <ele>2</ele>
        <time>2022-09-07T22:22:42Z</time>
      </trkpt>
      <trkpt lat="43.4949" lon="5.12662">
        <ele>1</ele>
        <time>2022-09-07T22:23:17Z</time>
      </trkpt>
      <trkpt lat="43.49497" lon="5.12644">
        <ele>1</ele>
        <time>2022-09-07T22:23:37Z</time>
      </trkpt>
      <trkpt lat="43.49509" lon="5.12617">
        <ele>1</ele>
        <time>2022-09-07T22:24:08Z</time>
      </trkpt>
      <trkpt lat="43.4952" lon="5.12596">
        <ele>1</ele>
        <time>2022-09-07T22:24:33Z</time>
      </trkpt>
      <trkpt lat="43.49548" lon="5.12555">
        <ele>1</ele>
        <time>2022-09-07T22:25:27Z</time>
      </trkpt>
      <trkpt lat="43.4955" lon="5.12552">
        <ele>1</ele>
        <time>2022-09-07T22:25:31Z</time>
      </trkpt>
      <trkpt lat="43.49599" lon="5.12502">
        <ele>1</ele>
        <time>2022-09-07T22:26:53Z</time>
      </trkpt>
      <trkpt lat="43.49609" lon="5.12492">
        <ele>1</ele>
        <time>2022-09-07T22:27:09Z</time>
      </trkpt>
      <trkpt lat="43.49613" lon="5.12478">
        <ele>1</ele>
        <time>2022-09-07T22:27:24Z</time>
      </trkpt>
      <trkpt lat="43.49627" lon="5.12441">
        <ele>1</ele>
        <time>2022-09-07T22:28:04Z</time>
      </trkpt>
      <trkpt lat="43.49643" lon="5.12398">
        <ele>1</ele>
        <time>2022-09-07T22:28:51Z</time>
      </trkpt>
      <trkpt lat="43.4967" lon="5.12366">
        <ele>2</ele>
        <time>2022-09-07T22:29:38Z</time>
      </trkpt>
      <trkpt lat="43.49682" lon="5.12349">
        <ele>2</ele>
        <time>2022-09-07T22:30:01Z</time>
      </trkpt>
      <trkpt lat="43.49695" lon="5.12329">
        <ele>1</ele>
        <time>2022-09-07T22:30:27Z</time>
      </trkpt>
      <trkpt lat="43.49709" lon="5.12308">
        <ele>1</ele>
        <time>2022-09-07T22:30:55Z</time>
      </trkpt>
      <trkpt lat="43.49723" lon="5.12297">
        <ele>1</ele>
        <time>2022-09-07T22:31:16Z</time>
      </trkpt>
      <trkpt lat="43.498" lon="5.12239">
        <ele>1</ele>
        <time>2022-09-07T22:33:14Z</time>
      </trkpt>
      <trkpt lat="43.49831" lon="5.12217">
        <ele>1</ele>
        <time>2022-09-07T22:34:00Z</time>
      </trkpt>
      <trkpt lat="43.49838" lon="5.12211">
        <ele>1.7</ele>
        <time>2022-09-07T22:34:11Z</time>
      </trkpt>
      <trkpt lat="43.49867" lon="5.12183">
        <ele>1.7</ele>
        <time>2022-09-07T22:34:58Z</time>
      </trkpt>
      <trkpt lat="43.49886" lon="5.12164">
        <ele>1</ele>
        <time>2022-09-07T22:35:30Z</time>
      </trkpt>
      <trkpt lat="43.4991" lon="5.12143">
        <ele>1</ele>
        <time>2022-09-07T22:36:08Z</time>
      </trkpt>
      <trkpt lat="43.49937" lon="5.12122">
        <ele>1</ele>
        <time>2022-09-07T22:36:49Z</time>
      </trkpt>
      <trkpt lat="43.49985" lon="5.12094">
        <ele>2</ele>
        <time>2022-09-07T22:37:58Z</time>
      </trkpt>
      <trkpt lat="43.50077" lon="5.12062">
        <ele>2</ele>
        <time>2022-09-07T22:40:05Z</time>
      </trkpt>
      <trkpt lat="43.50086" lon="5.12058">
        <ele>2</ele>
        <time>2022-09-07T22:40:18Z</time>
      </trkpt>
      <trkpt lat="43.50113" lon="5.12037">
        <ele>1</ele>
        <time>2022-09-07T22:40:59Z</time>
      </trkpt>
      <trkpt lat="43.50126" lon="5.12026">
        <ele>1</ele>
        <time>2022-09-07T22:41:19Z</time>
      </trkpt>
      <trkpt lat="43.50142" lon="5.12013">
        <ele>1</ele>
        <time>2022-09-07T22:41:44Z</time>
      </trkpt>
      <trkpt lat="43.50153" lon="5.12004">
        <ele>1</ele>
        <time>2022-09-07T22:42:01Z</time>
      </trkpt>
      <trkpt lat="43.50173" lon="5.11969">
        <ele>1</ele>
        <time>2022-09-07T22:42:44Z</time>
      </trkpt>
      <trkpt lat="43.50187" lon="5.11944">
        <ele>1</ele>
        <time>2022-09-07T22:43:15Z</time>
      </trkpt>
      <trkpt lat="43.50199" lon="5.11927">
        <ele>1</ele>
        <time>2022-09-07T22:43:38Z</time>
      </trkpt>
      <trkpt lat="43.50208" lon="5.11915">
        <ele>1</ele>
        <time>2022-09-07T22:43:55Z</time>
      </trkpt>
      <trkpt lat="43.50211" lon="5.11911">
        <ele>1</ele>
        <time>2022-09-07T22:44:00Z</time>
      </trkpt>
      <trkpt lat="43.50225" lon="5.11866">
        <ele>1</ele>
        <time>2022-09-07T22:44:48Z</time>
      </trkpt>
      <trkpt lat="43.50233" lon="5.11837">
        <ele>1.1</ele>
        <time>2022-09-07T22:45:18Z</time>
      </trkpt>
      <trkpt lat="43.50236" lon="5.1184">
        <ele>1.1</ele>
        <time>2022-09-07T22:45:23Z</time>
      </trkpt>
      <trkpt lat="43.50233" lon="5.11837">
        <ele>1.1</ele>
        <time>2022-09-07T22:45:28Z</time>
      </trkpt>
      <trkpt lat="43.50231" lon="5.11828">
        <ele>1</ele>
        <time>2022-09-07T22:45:37Z</time>
      </trkpt>
      <trkpt lat="43.50229" lon="5.11818">
        <ele>1</ele>
        <time>2022-09-07T22:45:47Z</time>
      </trkpt>
      <trkpt lat="43.50224" lon="5.11798">
        <ele>1</ele>
        <time>2022-09-07T22:46:07Z</time>
      </trkpt>
      <trkpt lat="43.50219" lon="5.11776">
        <ele>1</ele>
        <time>2022-09-07T22:46:29Z</time>
      </trkpt>
      <trkpt lat="43.50214" lon="5.11754">
        <ele>2</ele>
        <time>2022-09-07T22:46:52Z</time>
      </trkpt>
      <trkpt lat="43.50212" lon="5.11747">
        <ele>1</ele>
        <time>2022-09-07T22:46:59Z</time>
      </trkpt>
      <trkpt lat="43.50211" lon="5.11742">
        <ele>1</ele>
        <time>2022-09-07T22:47:04Z</time>
      </trkpt>
      <trkpt lat="43.5021" lon="5.11739">
        <ele>1</ele>
        <time>2022-09-07T22:47:07Z</time>
      </trkpt>
      <trkpt lat="43.50208" lon="5.11731">
        <ele>1</ele>
        <time>2022-09-07T22:47:15Z</time>
      </trkpt>
      <trkpt lat="43.50207" lon="5.11726">
        <ele>1</ele>
        <time>2022-09-07T22:47:21Z</time>
      </trkpt>
      <trkpt lat="43.50199" lon="5.11718">
        <ele>1</ele>
        <time>2022-09-07T22:47:34Z</time>
      </trkpt>
      <trkpt lat="43.5019" lon="5.11695">
        <ele>1</ele>
        <time>2022-09-07T22:47:59Z</time>
      </trkpt>
      <trkpt lat="43.50165" lon="5.11669">
        <ele>-1</ele>
        <time>2022-09-07T22:48:41Z</time>
      </trkpt>
      <trkpt lat="43.50154" lon="5.11648">
        <ele>-1</ele>
        <time>2022-09-07T22:49:06Z</time>
      </trkpt>
      <trkpt lat="43.50168" lon="5.11608">
        <ele>1</ele>
        <time>2022-09-07T22:49:49Z</time>
      </trkpt>
      <trkpt lat="43.5017" lon="5.11596">
        <ele>1</ele>
        <time>2022-09-07T22:50:01Z</time>
      </trkpt>
      <trkpt lat="43.50175" lon="5.11587">
        <ele>1</ele>
        <time>2022-09-07T22:50:12Z</time>
      </trkpt>
      <trkpt lat="43.5022" lon="5.11597">
        <ele>1</ele>
        <time>2022-09-07T22:51:13Z</time>
      </trkpt>
      <trkpt lat="43.50244" lon="5.11608">
        <ele>1</ele>
        <time>2022-09-07T22:51:46Z</time>
      </trkpt>
      <trkpt lat="43.50266" lon="5.1161">
        <ele>1</ele>
        <time>2022-09-07T22:52:16Z</time>
      </trkpt>
      <trkpt lat="43.50267" lon="5.1161">
        <ele>1</ele>
        <time>2022-09-07T22:52:17Z</time>
      </trkpt>
      <trkpt lat="43.50266" lon="5.1161">
        <ele>1</ele>
        <time>2022-09-07T22:52:18Z</time>
      </trkpt>
      <trkpt lat="43.50274" lon="5.11601">
        <ele>1</ele>
        <time>2022-09-07T22:52:32Z</time>
      </trkpt>
      <trkpt lat="43.50284" lon="5.11605">
        <ele>1</ele>
        <time>2022-09-07T22:52:46Z</time>
      </trkpt>
      <trkpt lat="43.50313" lon="5.11598">
        <ele>1</ele>
        <time>2022-09-07T22:53:25Z</time>
      </trkpt>
      <trkpt lat="43.5033" lon="5.11591">
        <ele>1</ele>
        <time>2022-09-07T22:53:49Z</time>
      </trkpt>
      <trkpt lat="43.50338" lon="5.11574">
        <ele>1</ele>
        <time>2022-09-07T22:54:09Z</time>
      </trkpt>
      <trkpt lat="43.50344" lon="5.11557">
        <ele>1</ele>
        <time>2022-09-07T22:54:27Z</time>
      </trkpt>
      <trkpt lat="43.50351" lon="5.11549">
        <ele>1</ele>
        <time>2022-09-07T22:54:39Z</time>
      </trkpt>
      <trkpt lat="43.50355" lon="5.11548">
        <ele>1</ele>
        <time>2022-09-07T22:54:45Z</time>
      </trkpt>
      <trkpt lat="43.50379" lon="5.11544">
        <ele>-1</ele>
        <time>2022-09-07T22:55:17Z</time>
      </trkpt>
      <trkpt lat="43.50395" lon="5.11542">
        <ele>-1</ele>
        <time>2022-09-07T22:55:38Z</time>
      </trkpt>
      <trkpt lat="43.50399" lon="5.11538">
        <ele>-1</ele>
        <time>2022-09-07T22:55:45Z</time>
      </trkpt>
      <trkpt lat="43.50412" lon="5.11524">
        <ele>-1</ele>
        <time>2022-09-07T22:56:07Z</time>
      </trkpt>
      <trkpt lat="43.5042" lon="5.11509">
        <ele>1</ele>
        <time>2022-09-07T22:56:25Z</time>
      </trkpt>
      <trkpt lat="43.50425" lon="5.11497">
        <ele>1</ele>
        <time>2022-09-07T22:56:38Z</time>
      </trkpt>
      <trkpt lat="43.50436" lon="5.11494">
        <ele>1</ele>
        <time>2022-09-07T22:56:53Z</time>
      </trkpt>
      <trkpt lat="43.5045" lon="5.11497">
        <ele>1</ele>
        <time>2022-09-07T22:57:12Z</time>
      </trkpt>
      <trkpt lat="43.50471" lon="5.11498">
        <ele>1</ele>
        <time>2022-09-07T22:57:40Z</time>
      </trkpt>
      <trkpt lat="43.50477" lon="5.11494">
        <ele>1</ele>
        <time>2022-09-07T22:57:49Z</time>
      </trkpt>
      <trkpt lat="43.50498" lon="5.11485">
        <ele>1</ele>
        <time>2022-09-07T22:58:18Z</time>
      </trkpt>
      <trkpt lat="43.50509" lon="5.11477">
        <ele>1</ele>
        <time>2022-09-07T22:58:35Z</time>
      </trkpt>
      <trkpt lat="43.50521" lon="5.11468">
        <ele>1</ele>
        <time>2022-09-07T22:58:53Z</time>
      </trkpt>
      <trkpt lat="43.50522" lon="5.11464">
        <ele>1</ele>
        <time>2022-09-07T22:58:57Z</time>
      </trkpt>
      <trkpt lat="43.50523" lon="5.11444">
        <ele>1</ele>
        <time>2022-09-07T22:59:17Z</time>
      </trkpt>
      <trkpt lat="43.50524" lon="5.11435">
        <ele>1</ele>
        <time>2022-09-07T22:59:26Z</time>
      </trkpt>
      <trkpt lat="43.50526" lon="5.11424">
        <ele>1</ele>
        <time>2022-09-07T22:59:37Z</time>
      </trkpt>
      <trkpt lat="43.5053" lon="5.11418">
        <ele>1</ele>
        <time>2022-09-07T22:59:44Z</time>
      </trkpt>
      <trkpt lat="43.50538" lon="5.11414">
        <ele>1</ele>
        <time>2022-09-07T22:59:56Z</time>
      </trkpt>
      <trkpt lat="43.50561" lon="5.11402">
        <ele>1</ele>
        <time>2022-09-07T23:00:29Z</time>
      </trkpt>
      <trkpt lat="43.50571" lon="5.11395">
        <ele>1</ele>
        <time>2022-09-07T23:00:44Z</time>
      </trkpt>
      <trkpt lat="43.50571" lon="5.11397">
        <ele>1</ele>
        <time>2022-09-07T23:00:45Z</time>
      </trkpt>
      <trkpt lat="43.50578" lon="5.11384">
        <ele>1</ele>
        <time>2022-09-07T23:01:01Z</time>
      </trkpt>
      <trkpt lat="43.50583" lon="5.11363">
        <ele>1</ele>
        <time>2022-09-07T23:01:23Z</time>
      </trkpt>
      <trkpt lat="43.50582" lon="5.11353">
        <ele>1</ele>
        <time>2022-09-07T23:01:32Z</time>
      </trkpt>
      <trkpt lat="43.50587" lon="5.11344">
        <ele>1</ele>
        <time>2022-09-07T23:01:43Z</time>
      </trkpt>
      <trkpt lat="43.50617" lon="5.11336">
        <ele>1</ele>
        <time>2022-09-07T23:02:24Z</time>
      </trkpt>
      <trkpt lat="43.50633" lon="5.11323">
        <time>2022-09-07T23:02:49Z</time>
      </trkpt>
      <trkpt lat="43.5065" lon="5.11301">
        <time>2022-09-07T23:03:20Z</time>
      </trkpt>
      <trkpt lat="43.5066" lon="5.1134">
        <ele>1</ele>
        <time>2022-09-07T23:04:00Z</time>
      </trkpt>
      <trkpt lat="43.50669" lon="5.11381">
        <ele>1</ele>
        <time>2022-09-07T23:04:41Z</time>
      </trkpt>
      <trkpt lat="43.50679" lon="5.11457">
        <ele>1</ele>
        <time>2022-09-07T23:05:56Z</time>
      </trkpt>
      <trkpt lat="43.50698" lon="5.11606">
        <ele>-1</ele>
        <time>2022-09-07T23:08:23Z</time>
      </trkpt>
      <trkpt lat="43.50708" lon="5.11683">
        <ele>-1</ele>
        <time>2022-09-07T23:09:38Z</time>
      </trkpt>
      <trkpt lat="43.50721" lon="5.11765">
        <ele>1.5</ele>
        <time>2022-09-07T23:11:00Z</time>
      </trkpt>
      <trkpt lat="43.5075" lon="5.11938">
        <ele>1</ele>
        <time>2022-09-07T23:13:51Z</time>
      </trkpt>
      <trkpt lat="43.50755" lon="5.11965">
        <ele>2</ele>
        <time>2022-09-07T23:14:18Z</time>
      </trkpt>
      <trkpt lat="43.50759" lon="5.12006">
        <ele>2</ele>
        <time>2022-09-07T23:14:58Z</time>
      </trkpt>
      <trkpt lat="43.50761" lon="5.12025">
        <ele>2</ele>
        <time>2022-09-07T23:15:17Z</time>
      </trkpt>
      <trkpt lat="43.5076" lon="5.12039">
        <ele>2</ele>
        <time>2022-09-07T23:15:31Z</time>
      </trkpt>
      <trkpt lat="43.50758" lon="5.12072">
        <ele>2</ele>
        <time>2022-09-07T23:16:03Z</time>
      </trkpt>
      <trkpt lat="43.50757" lon="5.12085">
        <ele>2</ele>
        <time>2022-09-07T23:16:15Z</time>
      </trkpt>
      <trkpt lat="43.5075" lon="5.12098">
        <ele>2</ele>
        <time>2022-09-07T23:16:31Z</time>
      </trkpt>
      <trkpt lat="43.50732" lon="5.12134">
        <ele>2</ele>
        <time>2022-09-07T23:17:13Z</time>
      </trkpt>
      <trkpt lat="43.50728" lon="5.12143">
        <ele>2</ele>
        <time>2022-09-07T23:17:24Z</time>
      </trkpt>
      <trkpt lat="43.50698" lon="5.1218">
        <ele>2</ele>
        <time>2022-09-07T23:18:17Z</time>
      </trkpt>
      <trkpt lat="43.50676" lon="5.12206">
        <ele>2</ele>
        <time>2022-09-07T23:18:56Z</time>
      </trkpt>
      <trkpt lat="43.50669" lon="5.12215">
        <ele>2</ele>
        <time>2022-09-07T23:19:09Z</time>
      </trkpt>
      <trkpt lat="43.50602" lon="5.12331">
        <ele>2</ele>
        <time>2022-09-07T23:21:32Z</time>
      </trkpt>
      <trkpt lat="43.50554" lon="5.12418">
        <ele>1</ele>
        <time>2022-09-07T23:23:18Z</time>
      </trkpt>
      <trkpt lat="43.50534" lon="5.12455">
        <ele>1</ele>
        <time>2022-09-07T23:24:03Z</time>
      </trkpt>
      <trkpt lat="43.50525" lon="5.12471">
        <ele>2</ele>
        <time>2022-09-07T23:24:22Z</time>
      </trkpt>
      <trkpt lat="43.50494" lon="5.12505">
        <ele>2</ele>
        <time>2022-09-07T23:25:15Z</time>
      </trkpt>
      <trkpt lat="43.50475" lon="5.12525">
        <ele>2</ele>
        <time>2022-09-07T23:25:47Z</time>
      </trkpt>
      <trkpt lat="43.50466" lon="5.12534">
        <ele>2</ele>
        <time>2022-09-07T23:26:02Z</time>
      </trkpt>
      <trkpt lat="43.50455" lon="5.12559">
        <ele>2</ele>
        <time>2022-09-07T23:26:30Z</time>
      </trkpt>
      <trkpt lat="43.5044" lon="5.12591">
        <ele>2</ele>
        <time>2022-09-07T23:27:07Z</time>
      </trkpt>
      <trkpt lat="43.5044" lon="5.12596">
        <ele>2</ele>
        <time>2022-09-07T23:27:12Z</time>
      </trkpt>
      <trkpt lat="43.50434" lon="5.12635">
        <ele>2</ele>
        <time>2022-09-07T23:27:51Z</time>
      </trkpt>
      <trkpt lat="43.50431" lon="5.12662">
        <ele>3</ele>
        <time>2022-09-07T23:28:17Z</time>
      </trkpt>
      <trkpt lat="43.50433" lon="5.12683">
        <ele>3</ele>
        <time>2022-09-07T23:28:37Z</time>
      </trkpt>
      <trkpt lat="43.50439" lon="5.12761">
        <ele>2</ele>
        <time>2022-09-07T23:29:53Z</time>
      </trkpt>
      <trkpt lat="43.5044" lon="5.12771">
        <ele>2</ele>
        <time>2022-09-07T23:30:03Z</time>
      </trkpt>
      <trkpt lat="43.50443" lon="5.12779">
        <ele>2</ele>
        <time>2022-09-07T23:30:12Z</time>
      </trkpt>
      <trkpt lat="43.50455" lon="5.12819">
        <ele>2</ele>
        <time>2022-09-07T23:30:54Z</time>
      </trkpt>
      <trkpt lat="43.50466" lon="5.12852">
        <ele>2</ele>
        <time>2022-09-07T23:31:29Z</time>
      </trkpt>
      <trkpt lat="43.50467" lon="5.12864">
        <ele>2</ele>
        <time>2022-09-07T23:31:41Z</time>
      </trkpt>
      <trkpt lat="43.50472" lon="5.12917">
        <ele>3</ele>
        <time>2022-09-07T23:32:32Z</time>
      </trkpt>
      <trkpt lat="43.50483" lon="5.13027">
        <ele>3</ele>
        <time>2022-09-07T23:34:20Z</time>
      </trkpt>
      <trkpt lat="43.50487" lon="5.13073">
        <ele>3</ele>
        <time>2022-09-07T23:35:05Z</time>
      </trkpt>
      <trkpt lat="43.50486" lon="5.13079">
        <ele>3</ele>
        <time>2022-09-07T23:35:11Z</time>
      </trkpt>
      <trkpt lat="43.50475" lon="5.13218">
        <ele>4</ele>
        <time>2022-09-07T23:37:26Z</time>
      </trkpt>
      <trkpt lat="43.50471" lon="5.13241">
        <ele>4</ele>
        <time>2022-09-07T23:37:49Z</time>
      </trkpt>
      <trkpt lat="43.50471" lon="5.13242">
        <ele>4</ele>
        <time>2022-09-07T23:37:50Z</time>
      </trkpt>
      <trkpt lat="43.50474" lon="5.13243">
        <ele>4</ele>
        <time>2022-09-07T23:37:54Z</time>
      </trkpt>
      <trkpt lat="43.50471" lon="5.13242">
        <ele>4</ele>
        <time>2022-09-07T23:37:58Z</time>
      </trkpt>
      <trkpt lat="43.50471" lon="5.13241">
        <ele>4</ele>
        <time>2022-09-07T23:37:59Z</time>
      </trkpt>
      <trkpt lat="43.50456" lon="5.13309">
        <ele>4</ele>
        <time>2022-09-07T23:39:08Z</time>
      </trkpt>
      <trkpt lat="43.50438" lon="5.13375">
        <ele>4</ele>
        <time>2022-09-07T23:40:16Z</time>
      </trkpt>
      <trkpt lat="43.50438" lon="5.13381">
        <ele>4</ele>
        <time>2022-09-07T23:40:22Z</time>
      </trkpt>
      <trkpt lat="43.50428" lon="5.13452">
        <ele>4</ele>
        <time>2022-09-07T23:41:32Z</time>
      </trkpt>
      <trkpt lat="43.50424" lon="5.13477">
        <ele>4</ele>
        <time>2022-09-07T23:41:57Z</time>
      </trkpt>
      <trkpt lat="43.50416" lon="5.13507">
        <ele>5</ele>
        <time>2022-09-07T23:42:28Z</time>
      </trkpt>
      <trkpt lat="43.50411" lon="5.13528">
        <ele>5</ele>
        <time>2022-09-07T23:42:49Z</time>
      </trkpt>
      <trkpt lat="43.50404" lon="5.1356">
        <ele>4</ele>
        <time>2022-09-07T23:43:21Z</time>
      </trkpt>
      <trkpt lat="43.50394" lon="5.13601">
        <ele>3</ele>
        <time>2022-09-07T23:44:03Z</time>
      </trkpt>
      <trkpt lat="43.50379" lon="5.13643">
        <ele>2</ele>
        <time>2022-09-07T23:44:49Z</time>
      </trkpt>
      <trkpt lat="43.50368" lon="5.13674">
        <ele>2</ele>
        <time>2022-09-07T23:45:22Z</time>
      </trkpt>
      <trkpt lat="43.50358" lon="5.13696">
        <ele>2</ele>
        <time>2022-09-07T23:45:47Z</time>
      </trkpt>
      <trkpt lat="43.5034" lon="5.13733">
        <ele>2</ele>
        <time>2022-09-07T23:46:30Z</time>
      </trkpt>
      <trkpt lat="43.5032" lon="5.13758">
        <ele>2</ele>
        <time>2022-09-07T23:47:06Z</time>
      </trkpt>
      <trkpt lat="43.50292" lon="5.13777">
        <ele>3</ele>
        <time>2022-09-07T23:47:48Z</time>
      </trkpt>
      <trkpt lat="43.5028" lon="5.13788">
        <ele>3</ele>
        <time>2022-09-07T23:48:07Z</time>
      </trkpt>
      <trkpt lat="43.50277" lon="5.13789">
        <ele>3</ele>
        <time>2022-09-07T23:48:11Z</time>
      </trkpt>
      <trkpt lat="43.5028" lon="5.13788">
        <ele>3</ele>
        <time>2022-09-07T23:48:15Z</time>
      </trkpt>
      <trkpt lat="43.50262" lon="5.13806">
        <ele>3</ele>
        <time>2022-09-07T23:48:45Z</time>
      </trkpt>
      <trkpt lat="43.50251" lon="5.13857">
        <ele>5</ele>
        <time>2022-09-07T23:49:36Z</time>
      </trkpt>
      <trkpt lat="43.50245" lon="5.13889">
        <ele>5</ele>
        <time>2022-09-07T23:50:08Z</time>
      </trkpt>
      <trkpt lat="43.50243" lon="5.13909">
        <ele>6</ele>
        <time>2022-09-07T23:50:28Z</time>
      </trkpt>
      <trkpt lat="43.50238" lon="5.13963">
        <ele>5</ele>
        <time>2022-09-07T23:51:21Z</time>
      </trkpt>
      <trkpt lat="43.50231" lon="5.1399">
        <ele>5</ele>
        <time>2022-09-07T23:51:48Z</time>
      </trkpt>
      <trkpt lat="43.50225" lon="5.14005">
        <ele>5</ele>
        <time>2022-09-07T23:52:05Z</time>
      </trkpt>
      <trkpt lat="43.50218" lon="5.14019">
        <ele>5</ele>
        <time>2022-09-07T23:52:21Z</time>
      </trkpt>
      <trkpt lat="43.50211" lon="5.14031">
        <ele>6</ele>
        <time>2022-09-07T23:52:36Z</time>
      </trkpt>
      <trkpt lat="43.50211" lon="5.14038">
        <ele>6</ele>
        <time>2022-09-07T23:52:43Z</time>
      </trkpt>
      <trkpt lat="43.50211" lon="5.14074">
        <ele>6</ele>
        <time>2022-09-07T23:53:18Z</time>
      </trkpt>
      <trkpt lat="43.50212" lon="5.14096">
        <ele>6</ele>
        <time>2022-09-07T23:53:39Z</time>
      </trkpt>
      <trkpt lat="43.50216" lon="5.14119">
        <ele>6</ele>
        <time>2022-09-07T23:54:02Z</time>
      </trkpt>
      <trkpt lat="43.50222" lon="5.14153">
        <ele>5</ele>
        <time>2022-09-07T23:54:36Z</time>
      </trkpt>
      <trkpt lat="43.50226" lon="5.14177">
        <ele>5</ele>
        <time>2022-09-07T23:55:00Z</time>
      </trkpt>
      <trkpt lat="43.50224" lon="5.14183">
        <ele>5</ele>
        <time>2022-09-07T23:55:06Z</time>
      </trkpt>
      <trkpt lat="43.50218" lon="5.14201">
        <ele>5</ele>
        <time>2022-09-07T23:55:26Z</time>
      </trkpt>
      <trkpt lat="43.502" lon="5.14241">
        <ele>6</ele>
        <time>2022-09-07T23:56:11Z</time>
      </trkpt>
      <trkpt lat="43.50188" lon="5.14265">
        <ele>6</ele>
        <time>2022-09-07T23:56:39Z</time>
      </trkpt>
      <trkpt lat="43.50177" lon="5.14288">
        <ele>6</ele>
        <time>2022-09-07T23:57:06Z</time>
      </trkpt>
      <trkpt lat="43.50169" lon="5.14312">
        <ele>7</ele>
        <time>2022-09-07T23:57:32Z</time>
      </trkpt>
      <trkpt lat="43.50155" lon="5.14356">
        <ele>7</ele>
        <time>2022-09-07T23:58:18Z</time>
      </trkpt>
      <trkpt lat="43.50148" lon="5.14378">
        <ele>6</ele>
        <time>2022-09-07T23:58:41Z</time>
      </trkpt>
      <trkpt lat="43.50148" lon="5.14382">
        <ele>6</ele>
        <time>2022-09-07T23:58:45Z</time>
      </trkpt>
      <trkpt lat="43.50148" lon="5.14451">
        <ele>6</ele>
        <time>2022-09-07T23:59:52Z</time>
      </trkpt>
      <trkpt lat="43.50149" lon="5.14497">
        <ele>5</ele>
        <time>2022-09-08T00:00:37Z</time>
      </trkpt>
      <trkpt lat="43.50149" lon="5.14513">
        <ele>6</ele>
        <time>2022-09-08T00:00:52Z</time>
      </trkpt>
      <trkpt lat="43.50149" lon="5.14518">
        <ele>6</ele>
        <time>2022-09-08T00:00:57Z</time>
      </trkpt>
      <trkpt lat="43.50144" lon="5.14531">
        <ele>6</ele>
        <time>2022-09-08T00:01:11Z</time>
      </trkpt>
      <trkpt lat="43.50141" lon="5.14537">
        <ele>6</ele>
        <time>2022-09-08T00:01:18Z</time>
      </trkpt>
      <trkpt lat="43.50135" lon="5.14543">
        <ele>6</ele>
        <time>2022-09-08T00:01:28Z</time>
      </trkpt>
      <trkpt lat="43.50107" lon="5.1457">
        <ele>7</ele>
        <time>2022-09-08T00:02:14Z</time>
      </trkpt>
      <trkpt lat="43.50101" lon="5.14573">
        <ele>7</ele>
        <time>2022-09-08T00:02:22Z</time>
      </trkpt>
      <trkpt lat="43.50078" lon="5.14584">
        <ele>8</ele>
        <time>2022-09-08T00:02:55Z</time>
      </trkpt>
      <trkpt lat="43.50056" lon="5.14607">
        <ele>7</ele>
        <time>2022-09-08T00:03:31Z</time>
      </trkpt>
      <trkpt lat="43.50042" lon="5.14621">
        <ele>7</ele>
        <time>2022-09-08T00:03:55Z</time>
      </trkpt>
      <trkpt lat="43.50022" lon="5.14634">
        <ele>7</ele>
        <time>2022-09-08T00:04:24Z</time>
      </trkpt>
      <trkpt lat="43.5001" lon="5.14642">
        <ele>7</ele>
        <time>2022-09-08T00:04:42Z</time>
      </trkpt>
      <trkpt lat="43.50006" lon="5.14641">
        <ele>7</ele>
        <time>2022-09-08T00:04:47Z</time>
      </trkpt>
      <trkpt lat="43.49994" lon="5.14639">
        <ele>8</ele>
        <time>2022-09-08T00:05:03Z</time>
      </trkpt>
      <trkpt lat="43.4998" lon="5.14637">
        <ele>8</ele>
        <time>2022-09-08T00:05:22Z</time>
      </trkpt>
      <trkpt lat="43.49971" lon="5.14636">
        <ele>8</ele>
        <time>2022-09-08T00:05:34Z</time>
      </trkpt>
      <trkpt lat="43.49967" lon="5.1464">
        <ele>8</ele>
        <time>2022-09-08T00:05:41Z</time>
      </trkpt>
      <trkpt lat="43.49945" lon="5.1466">
        <ele>8</ele>
        <time>2022-09-08T00:06:16Z</time>
      </trkpt>
      <trkpt lat="43.49928" lon="5.14676">
        <ele>8</ele>
        <time>2022-09-08T00:06:43Z</time>
      </trkpt>
      <trkpt lat="43.49927" lon="5.14679">
        <ele>8</ele>
        <time>2022-09-08T00:06:47Z</time>
      </trkpt>
      <trkpt lat="43.49914" lon="5.14714">
        <ele>8</ele>
        <time>2022-09-08T00:07:25Z</time>
      </trkpt>
      <trkpt lat="43.49905" lon="5.14737">
        <ele>8</ele>
        <time>2022-09-08T00:07:50Z</time>
      </trkpt>
      <trkpt lat="43.49902" lon="5.14743">
        <ele>8</ele>
        <time>2022-09-08T00:07:57Z</time>
      </trkpt>
      <trkpt lat="43.4987" lon="5.14773">
        <ele>8</ele>
        <time>2022-09-08T00:08:49Z</time>
      </trkpt>
      <trkpt lat="43.49864" lon="5.14778">
        <ele>8</ele>
        <time>2022-09-08T00:08:58Z</time>
      </trkpt>
      <trkpt lat="43.4986" lon="5.14781">
        <ele>8</ele>
        <time>2022-09-08T00:09:04Z</time>
      </trkpt>
      <trkpt lat="43.498" lon="5.14812">
        <ele>8</ele>
        <time>2022-09-08T00:10:30Z</time>
      </trkpt>
      <trkpt lat="43.49776" lon="5.14823">
        <ele>7</ele>
        <time>2022-09-08T00:11:03Z</time>
      </trkpt>
      <trkpt lat="43.49745" lon="5.14838">
        <ele>6</ele>
        <time>2022-09-08T00:11:47Z</time>
      </trkpt>
      <trkpt lat="43.49698" lon="5.14859">
        <ele>7</ele>
        <time>2022-09-08T00:12:53Z</time>
      </trkpt>
      <trkpt lat="43.49698" lon="5.14861">
        <ele>7</ele>
        <time>2022-09-08T00:12:55Z</time>
      </trkpt>
      <trkpt lat="43.49704" lon="5.14881">
        <ele>7</ele>
        <time>2022-09-08T00:13:16Z</time>
      </trkpt>
      <trkpt lat="43.49721" lon="5.14947">
        <ele>8</ele>
        <time>2022-09-08T00:14:24Z</time>
      </trkpt>
      <trkpt lat="43.49724" lon="5.14973">
        <ele>8</ele>
        <time>2022-09-08T00:14:49Z</time>
      </trkpt>
      <trkpt lat="43.49726" lon="5.14988">
        <ele>8</ele>
        <time>2022-09-08T00:15:04Z</time>
      </trkpt>
      <trkpt lat="43.49724" lon="5.15025">
        <ele>8</ele>
        <time>2022-09-08T00:15:40Z</time>
      </trkpt>
      <trkpt lat="43.49724" lon="5.15038">
        <ele>8</ele>
        <time>2022-09-08T00:15:53Z</time>
      </trkpt>
      <trkpt lat="43.49725" lon="5.15061">
        <ele>7</ele>
        <time>2022-09-08T00:16:15Z</time>
      </trkpt>
      <trkpt lat="43.49734" lon="5.15132">
        <ele>8</ele>
        <time>2022-09-08T00:17:25Z</time>
      </trkpt>
      <trkpt lat="43.49738" lon="5.15156">
        <ele>8</ele>
        <time>2022-09-08T00:17:49Z</time>
      </trkpt>
      <trkpt lat="43.49741" lon="5.15159">
        <ele>8</ele>
        <time>2022-09-08T00:17:53Z</time>
      </trkpt>
      <trkpt lat="43.49741" lon="5.15163">
        <ele>8</ele>
        <time>2022-09-08T00:17:57Z</time>
      </trkpt>
      <trkpt lat="43.49739" lon="5.15171">
        <ele>8</ele>
        <time>2022-09-08T00:18:06Z</time>
      </trkpt>
      <trkpt lat="43.49741" lon="5.15179">
        <ele>8</ele>
        <time>2022-09-08T00:18:14Z</time>
      </trkpt>
      <trkpt lat="43.49758" lon="5.15263">
        <ele>8</ele>
        <time>2022-09-08T00:19:38Z</time>
      </trkpt>
      <trkpt lat="43.49758" lon="5.15267">
        <ele>8</ele>
        <time>2022-09-08T00:19:42Z</time>
      </trkpt>
      <trkpt lat="43.49756" lon="5.15281">
        <ele>8</ele>
        <time>2022-09-08T00:19:56Z</time>
      </trkpt>
      <trkpt lat="43.49752" lon="5.15293">
        <ele>8</ele>
        <time>2022-09-08T00:20:09Z</time>
      </trkpt>
      <trkpt lat="43.49749" lon="5.15303">
        <ele>8</ele>
        <time>2022-09-08T00:20:19Z</time>
      </trkpt>
      <trkpt lat="43.49752" lon="5.15314">
        <ele>8</ele>
        <time>2022-09-08T00:20:30Z</time>
      </trkpt>
      <trkpt lat="43.49754" lon="5.15323">
        <ele>8</ele>
        <time>2022-09-08T00:20:40Z</time>
      </trkpt>
      <trkpt lat="43.49754" lon="5.15326">
        <ele>8</ele>
        <time>2022-09-08T00:20:42Z</time>
      </trkpt>
      <trkpt lat="43.4962" lon="5.15397">
        <ele>7</ele>
        <time>2022-09-08T00:23:54Z</time>
      </trkpt>
      <trkpt lat="43.49603" lon="5.15406">
        <ele>7</ele>
        <time>2022-09-08T00:24:18Z</time>
      </trkpt>
      <trkpt lat="43.49592" lon="5.1541">
        <ele>8</ele>
        <time>2022-09-08T00:24:34Z</time>
      </trkpt>
      <trkpt lat="43.49574" lon="5.15416">
        <ele>8</ele>
        <time>2022-09-08T00:24:58Z</time>
      </trkpt>
      <trkpt lat="43.49564" lon="5.15419">
        <ele>8</ele>
        <time>2022-09-08T00:25:12Z</time>
      </trkpt>
      <trkpt lat="43.49537" lon="5.15432">
        <ele>8</ele>
        <time>2022-09-08T00:25:50Z</time>
      </trkpt>
      <trkpt lat="43.4951" lon="5.15446">
        <ele>7</ele>
        <time>2022-09-08T00:26:29Z</time>
      </trkpt>
      <trkpt lat="43.49505" lon="5.15442">
        <ele>7</ele>
        <time>2022-09-08T00:26:36Z</time>
      </trkpt>
    </trkseg>
  </trk>
</gpx>